Terminal Aerodrome Forecast
Issued by NWS Pocatello, ID

Home | Current Version | Previous Version | Text Only | Print | Product List | Glossary On
Versions: 1 2 3 4 5 6 7 8 9 10 11 12 13 14
000
FTUS45 KPIH 210900 AAA
TAFBYI
TAF AMD
KBYI 210959Z 2110/2206 26020G30KT P6SM -SHRA SCT040 BKN070 OVC090
     FM211900 27020G30KT P6SM SCT080
     FM212300 25011KT P6SM FEW090 BKN200=

USA.gov is the U.S. government's official web portal to all federal, state and local government web resources and services.